Time;durP1;ratioP1;P1;durP2;ratioP2;P2;SDS_P1;SDS_P2;PMS_P1;PMS_P2;Temp;Humidity;BMP_temperature;BMP_pressure;BME280_temperature;BME280_humidity;BME280_pressure;Samples;Min_cycle;Max_cycle;Signal;HPM_P1;HPM_P2
2021/10/13 00:00:07;;;;;;;5.40;1.50;;;10.60;99.90;;;;;;4927697;29;20222;-81
2021/10/13 00:02:34;;;;;;;2.50;0.90;;;10.60;99.90;;;;;;4918821;29;20623;-86
2021/10/13 00:05:02;;;;;;;3.43;1.00;;;10.70;99.90;;;;;;4919307;29;20237;-82
2021/10/13 00:07:29;;;;;;;3.83;0.90;;;10.70;99.90;;;;;;4920132;29;20230;-84
2021/10/13 00:09:57;;;;;;;2.17;0.80;;;10.80;99.90;;;;;;4919647;29;20262;-85
2021/10/13 00:12:24;;;;;;;1.27;0.60;;;10.70;99.90;;;;;;4919754;29;20230;-82
2021/10/13 00:14:51;;;;;;;0.97;0.77;;;10.70;99.90;;;;;;4919037;29;20199;-84
2021/10/13 00:17:18;;;;;;;2.80;0.80;;;10.70;99.90;;;;;;4919901;29;20203;-87
2021/10/13 00:19:45;;;;;;;2.73;0.70;;;10.70;99.90;;;;;;4920716;29;20203;-87
2021/10/13 00:22:13;;;;;;;1.87;0.70;;;10.70;99.90;;;;;;4938142;29;20222;-84
2021/10/13 00:24:40;;;;;;;2.57;0.60;;;10.70;99.90;;;;;;4940632;29;20198;-83
2021/10/13 00:27:06;;;;;;;2.57;0.60;;;10.70;99.90;;;;;;4932282;29;20218;-83
2021/10/13 00:29:36;;;;;;;2.00;0.40;;;10.60;99.90;;;;;;4924764;29;20218;-85
2021/10/13 00:32:04;;;;;;;3.13;0.93;;;10.60;99.90;;;;;;4923245;29;20207;-87
2021/10/13 00:34:31;;;;;;;1.57;0.77;;;10.50;99.90;;;;;;4920165;29;20214;-88
2021/10/13 00:36:58;;;;;;;11.13;2.87;;;10.50;99.90;;;;;;4919559;29;20202;-86
2021/10/13 00:39:26;;;;;;;5.97;1.20;;;10.60;99.90;;;;;;4933366;29;20238;-86
2021/10/13 00:41:53;;;;;;;3.10;1.60;;;10.70;99.90;;;;;;4938658;29;20249;-87
2021/10/13 00:44:20;;;;;;;5.53;0.80;;;10.70;99.90;;;;;;4938036;29;20206;-87
2021/10/13 00:46:46;;;;;;;4.27;1.10;;;10.70;99.90;;;;;;4941531;29;20225;-85
2021/10/13 00:49:13;;;;;;;6.17;1.37;;;10.70;99.90;;;;;;4942735;29;20216;-87
2021/10/13 00:51:40;;;;;;;5.57;1.23;;;10.80;99.90;;;;;;4941939;29;20201;-83
2021/10/13 00:54:09;;;;;;;6.90;1.30;;;10.80;99.90;;;;;;4942129;29;20650;-86
2021/10/13 00:56:37;;;;;;;9.10;1.70;;;10.80;99.90;;;;;;4940004;29;20198;-87
2021/10/13 00:59:04;;;;;;;7.20;1.33;;;10.80;99.90;;;;;;4922964;29;20206;-88
2021/10/13 01:01:41;;;;;;;3.13;1.13;;;10.70;99.90;;;;;;4923613;29;20191;-88
2021/10/13 01:04:24;;;;;;;4.93;1.17;;;10.60;99.90;;;;;;4922997;29;20207;-86
2021/10/13 01:07:00;;;;;;;2.90;0.60;;;10.60;99.90;;;;;;4931014;29;20606;-88
2021/10/13 01:09:30;;;;;;;2.97;1.00;;;10.50;99.90;;;;;;4942412;29;20244;-89
2021/10/13 01:12:08;;;;;;;3.07;1.03;;;10.40;99.90;;;;;;4941739;29;20755;-89
2021/10/13 01:14:46;;;;;;;2.03;0.60;;;10.40;99.90;;;;;;4941216;29;20236;-88
2021/10/13 01:17:26;;;;;;;1.20;0.83;;;10.30;99.90;;;;;;4942202;29;20492;-85
2021/10/13 01:20:13;;;;;;;2.77;0.80;;;10.20;99.90;;;;;;4941491;29;20269;-86
2021/10/13 01:23:13;;;;;;;1.50;0.67;;;10.10;99.90;;;;;;4941942;29;20265;-88
2021/10/13 01:25:47;;;;;;;1.73;1.00;;;10.00;99.90;;;;;;4942167;29;20212;-88
2021/10/13 01:28:19;;;;;;;1.30;0.70;;;9.90;99.90;;;;;;4942170;29;20229;-84
2021/10/13 01:30:52;;;;;;;1.10;0.60;;;9.90;99.90;;;;;;4934898;29;20206;-85
2021/10/13 01:33:23;;;;;;;3.03;0.70;;;9.80;99.90;;;;;;4923004;29;20199;-84
2021/10/13 01:35:54;;;;;;;1.57;0.93;;;9.70;99.90;;;;;;4923366;29;20210;-86
2021/10/13 01:38:25;;;;;;;1.87;0.70;;;9.70;99.90;;;;;;4922162;29;20202;-83
2021/10/13 01:40:54;;;;;;;2.20;0.70;;;9.60;99.90;;;;;;4921538;29;20198;-88
2021/10/13 01:43:24;;;;;;;1.37;0.80;;;9.50;99.90;;;;;;4923765;29;20222;-86
2021/10/13 01:45:53;;;;;;;2.87;0.87;;;9.50;99.90;;;;;;4941229;29;20217;-87
2021/10/13 01:48:21;;;;;;;2.13;0.77;;;9.50;99.90;;;;;;4940900;29;20217;-89
2021/10/13 01:50:52;;;;;;;3.47;0.80;;;9.40;99.90;;;;;;4941294;29;20284;-87
2021/10/13 01:53:22;;;;;;;3.10;1.00;;;9.40;99.90;;;;;;4929533;29;20257;-85
2021/10/13 01:55:52;;;;;;;2.07;0.70;;;9.40;99.90;;;;;;4920577;29;20195;-88
2021/10/13 01:58:21;;;;;;;1.03;0.60;;;9.30;99.90;;;;;;4902837;29;20204;-86
2021/10/13 02:00:51;;;;;;;1.27;0.70;;;9.30;99.90;;;;;;4902666;29;20207;-89
2021/10/13 02:03:21;;;;;;;4.20;1.00;;;9.30;99.90;;;;;;4903109;29;20235;-88
2021/10/13 02:05:51;;;;;;;3.20;0.80;;;9.30;99.90;;;;;;4912940;29;20211;-89
2021/10/13 02:08:21;;;;;;;2.30;0.90;;;9.30;99.90;;;;;;4921960;29;20218;-89
2021/10/13 02:10:49;;;;;;;6.73;1.17;;;9.20;99.90;;;;;;4918563;29;20215;-88
2021/10/13 02:13:17;;;;;;;2.67;0.90;;;9.20;99.90;;;;;;4903331;29;20214;-86
2021/10/13 02:15:46;;;;;;;2.67;0.90;;;9.20;99.90;;;;;;4902925;29;20208;-87
2021/10/13 02:18:19;;;;;;;4.37;1.10;;;9.10;99.90;;;;;;4903823;29;20214;-89
2021/10/13 02:20:48;;;;;;;2.33;0.87;;;9.10;99.90;;;;;;4902998;29;20226;-87
2021/10/13 02:23:16;;;;;;;2.60;1.57;;;9.10;99.90;;;;;;4917168;29;20316;-84
2021/10/13 02:25:47;;;;;;;2.20;0.80;;;9.10;99.90;;;;;;4922335;29;20202;-89
2021/10/13 02:28:20;;;;;;;2.33;0.77;;;9.10;99.90;;;;;;4922059;29;20203;-84
2021/10/13 02:30:47;;;;;;;2.20;0.80;;;9.00;99.90;;;;;;4905753;29;20210;-88
2021/10/13 02:33:15;;;;;;;2.30;0.80;;;9.00;99.90;;;;;;4902663;29;20597;-90
2021/10/13 02:35:42;;;;;;;2.27;1.20;;;9.00;99.90;;;;;;4901798;29;20210;-89
2021/10/13 02:38:10;;;;;;;3.87;1.07;;;9.00;99.90;;;;;;4902073;29;20328;-88
2021/10/13 02:40:37;;;;;;;4.33;1.00;;;8.90;99.90;;;;;;4901997;29;20231;-88
2021/10/13 02:43:05;;;;;;;2.57;1.03;;;8.90;99.90;;;;;;4902041;29;20242;-88
2021/10/13 02:45:37;;;;;;;1.50;0.80;;;8.90;99.90;;;;;;4902927;29;20196;-87
2021/10/13 02:48:10;;;;;;;1.63;0.97;;;8.90;99.90;;;;;;4902208;29;20230;-88
2021/10/13 02:50:46;;;;;;;3.57;1.00;;;8.90;99.90;;;;;;4902076;29;20206;-88
2021/10/13 02:53:20;;;;;;;3.17;0.80;;;8.90;99.90;;;;;;4902470;29;20248;-88
2021/10/13 02:55:53;;;;;;;2.40;0.73;;;8.90;99.90;;;;;;4902401;29;20214;-88
2021/10/13 02:58:22;;;;;;;2.67;0.90;;;8.80;99.90;;;;;;4903831;29;20234;-87
2021/10/13 03:00:52;;;;;;;1.73;0.80;;;8.90;99.90;;;;;;4910319;29;20232;-83
2021/10/13 03:03:24;;;;;;;1.57;0.60;;;8.90;99.90;;;;;;4915070;29;20305;-82
2021/10/13 03:05:55;;;;;;;3.77;1.00;;;8.90;99.90;;;;;;4920976;29;20215;-84
2021/10/13 03:08:25;;;;;;;1.77;1.07;;;8.90;99.90;;;;;;4917898;29;20227;-82
2021/10/13 03:10:54;;;;;;;2.20;0.80;;;8.90;99.90;;;;;;4900876;29;20211;-86
2021/10/13 03:13:26;;;;;;;3.57;1.10;;;8.90;99.90;;;;;;4901633;29;20592;-81
2021/10/13 03:15:55;;;;;;;2.73;0.70;;;8.90;99.90;;;;;;4901689;29;20202;-81
2021/10/13 03:18:23;;;;;;;0.93;0.63;;;8.90;99.90;;;;;;4901033;29;20202;-83
2021/10/13 03:20:52;;;;;;;1.20;0.63;;;8.90;99.90;;;;;;4901143;29;20248;-84
2021/10/13 03:23:20;;;;;;;3.70;0.90;;;8.90;99.90;;;;;;4901261;29;20227;-84
2021/10/13 03:25:48;;;;;;;2.57;0.80;;;8.90;99.90;;;;;;4900782;29;20199;-83
2021/10/13 03:28:15;;;;;;;3.47;0.90;;;8.90;99.90;;;;;;4901279;29;20207;-84
2021/10/13 03:30:44;;;;;;;2.00;0.73;;;8.90;99.90;;;;;;4901240;29;20227;-83
2021/10/13 03:33:11;;;;;;;1.27;0.70;;;8.80;99.90;;;;;;4900740;29;20199;-82
2021/10/13 03:35:38;;;;;;;2.20;0.80;;;8.80;99.90;;;;;;4900881;29;20210;-85
2021/10/13 03:38:07;;;;;;;2.17;0.67;;;8.80;99.90;;;;;;4901126;29;20222;-88
2021/10/13 03:40:35;;;;;;;0.73;0.70;;;8.70;99.90;;;;;;4900514;29;20241;-87
2021/10/13 03:43:02;;;;;;;2.10;0.90;;;8.70;99.90;;;;;;4901038;29;20227;-85
2021/10/13 03:45:29;;;;;;;1.77;0.80;;;8.70;99.90;;;;;;4914026;29;20626;-85
2021/10/13 03:47:56;;;;;;;1.57;0.80;;;8.60;99.90;;;;;;4919131;29;20215;-83
2021/10/13 03:50:23;;;;;;;1.37;0.80;;;8.60;99.90;;;;;;4919924;29;20218;-83
2021/10/13 03:52:50;;;;;;;2.03;0.70;;;8.50;99.90;;;;;;4906365;29;20266;-83
2021/10/13 03:55:20;;;;;;;3.33;1.07;;;8.50;99.90;;;;;;4901039;29;20834;-87
2021/10/13 03:57:47;;;;;;;2.70;1.00;;;8.50;99.90;;;;;;4901076;29;20207;-89
2021/10/13 04:00:15;;;;;;;1.90;0.67;;;8.40;99.90;;;;;;4900517;29;20293;-82
2021/10/13 04:02:42;;;;;;;1.33;0.90;;;8.40;99.90;;;;;;4901062;29;20210;-83
2021/10/13 04:05:10;;;;;;;1.10;0.70;;;8.40;99.90;;;;;;4902663;29;20218;-82
2021/10/13 04:07:37;;;;;;;2.63;1.40;;;8.40;99.90;;;;;;4902190;29;20232;-83
2021/10/13 04:10:07;;;;;;;3.93;1.63;;;8.40;99.90;;;;;;4901324;29;20212;-86
2021/10/13 04:12:36;;;;;;;2.77;1.03;;;8.40;99.90;;;;;;4902031;29;20207;-82
2021/10/13 04:15:04;;;;;;;1.63;0.93;;;8.40;99.90;;;;;;4907426;29;20207;-82
2021/10/13 04:17:33;;;;;;;4.10;1.37;;;8.40;99.90;;;;;;4921818;29;20207;-87
2021/10/13 04:20:00;;;;;;;1.33;0.80;;;8.40;99.90;;;;;;4917170;29;20243;-86
2021/10/13 04:22:27;;;;;;;2.03;1.10;;;8.40;99.90;;;;;;4900554;29;20202;-86
2021/10/13 04:24:53;;;;;;;2.33;0.93;;;8.40;99.90;;;;;;4901538;29;20568;-83
2021/10/13 04:27:20;;;;;;;1.97;1.10;;;8.40;99.90;;;;;;4901022;29;20192;-86
2021/10/13 04:29:48;;;;;;;1.37;0.90;;;8.40;99.90;;;;;;4910901;29;20213;-84
2021/10/13 04:32:17;;;;;;;1.30;1.00;;;8.40;99.90;;;;;;4921748;29;20206;-84
2021/10/13 04:34:44;;;;;;;1.47;0.90;;;8.40;99.90;;;;;;4923985;29;20466;-84
2021/10/13 04:37:11;;;;;;;0.97;0.70;;;8.40;99.90;;;;;;4900418;29;20526;-83
2021/10/13 04:39:38;;;;;;;3.33;1.30;;;8.40;99.90;;;;;;4900374;29;20198;-85
2021/10/13 04:42:04;;;;;;;3.47;1.37;;;8.40;99.90;;;;;;4900082;29;20200;-83
2021/10/13 04:44:31;;;;;;;2.53;1.20;;;8.40;99.90;;;;;;4900095;29;20230;-82
2021/10/13 04:47:00;;;;;;;1.70;1.00;;;8.50;99.90;;;;;;4900064;29;20203;-84
2021/10/13 04:49:27;;;;;;;1.97;1.00;;;8.50;99.90;;;;;;4899862;29;20207;-83
2021/10/13 04:51:55;;;;;;;2.37;1.00;;;8.50;99.90;;;;;;4900158;29;20223;-83
2021/10/13 04:54:23;;;;;;;3.33;1.20;;;8.50;99.90;;;;;;4900634;29;20203;-83
2021/10/13 04:56:50;;;;;;;3.47;1.40;;;8.50;99.90;;;;;;4899940;29;20330;-82
2021/10/13 04:59:17;;;;;;;1.67;1.10;;;8.40;99.90;;;;;;4900441;29;20207;-86
2021/10/13 05:01:44;;;;;;;2.07;1.37;;;8.40;99.90;;;;;;4899806;29;20210;-82
2021/10/13 05:04:12;;;;;;;2.13;1.00;;;8.40;99.90;;;;;;4899827;29;20330;-83
2021/10/13 05:06:39;;;;;;;3.93;1.37;;;8.40;99.90;;;;;;4900118;29;20203;-82
2021/10/13 05:09:05;;;;;;;2.37;1.10;;;8.40;99.90;;;;;;4900177;29;20221;-87
2021/10/13 05:11:32;;;;;;;2.93;1.40;;;8.30;99.90;;;;;;4899488;29;20227;-84
2021/10/13 05:13:59;;;;;;;2.40;1.20;;;8.30;99.90;;;;;;4899927;29;20210;-83
2021/10/13 05:16:26;;;;;;;2.77;1.27;;;8.30;99.90;;;;;;4899924;29;20230;-84
2021/10/13 05:18:53;;;;;;;2.03;1.27;;;8.30;99.90;;;;;;4899494;29;20531;-83
2021/10/13 05:21:21;;;;;;;2.07;1.30;;;8.30;99.90;;;;;;4899639;29;20216;-83
2021/10/13 05:23:47;;;;;;;1.53;1.13;;;8.30;99.90;;;;;;4899809;29;20279;-82
2021/10/13 05:26:14;;;;;;;2.73;1.20;;;8.30;99.90;;;;;;4899902;29;20222;-82
2021/10/13 05:28:41;;;;;;;2.50;1.07;;;8.30;99.90;;;;;;4899985;29;20196;-88
2021/10/13 05:31:08;;;;;;;3.57;1.10;;;8.30;99.90;;;;;;4899691;29;20200;-80
2021/10/13 05:33:35;;;;;;;2.03;0.90;;;8.30;99.90;;;;;;4915267;29;20199;-85
2021/10/13 05:36:02;;;;;;;2.77;0.83;;;8.30;99.90;;;;;;4921960;29;20207;-87
2021/10/13 05:38:30;;;;;;;2.77;0.90;;;8.30;99.90;;;;;;4903440;29;20825;-82
2021/10/13 05:40:57;;;;;;;1.70;0.83;;;8.30;99.90;;;;;;4903680;29;20195;-87
2021/10/13 05:43:23;;;;;;;2.67;1.10;;;8.30;99.90;;;;;;4903323;29;20214;-84
2021/10/13 05:45:50;;;;;;;1.97;1.17;;;8.30;99.90;;;;;;4915928;29;20207;-83
2021/10/13 05:48:17;;;;;;;1.93;1.00;;;8.30;99.90;;;;;;4922348;29;20203;-86
2021/10/13 05:50:44;;;;;;;2.33;0.90;;;8.30;99.90;;;;;;4922247;29;20218;-86
2021/10/13 05:53:10;;;;;;;1.33;0.90;;;8.40;99.90;;;;;;4921651;29;20561;-87
2021/10/13 05:55:39;;;;;;;2.73;1.10;;;8.40;99.90;;;;;;4921955;29;20615;-88
2021/10/13 05:58:06;;;;;;;5.47;1.20;;;8.40;99.90;;;;;;4922085;29;20217;-84
2021/10/13 06:00:33;;;;;;;3.00;1.30;;;8.50;99.90;;;;;;4921669;29;20207;-85
2021/10/13 06:03:00;;;;;;;3.37;1.43;;;8.50;99.90;;;;;;4909249;29;20222;-86
2021/10/13 06:05:27;;;;;;;3.10;1.07;;;8.60;99.90;;;;;;4906512;29;20243;-82
2021/10/13 06:07:53;;;;;;;2.73;1.10;;;8.60;99.90;;;;;;4915443;29;20238;-84
2021/10/13 06:10:20;;;;;;;2.40;1.00;;;8.70;99.90;;;;;;4921763;29;20203;-83
2021/10/13 06:12:49;;;;;;;1.50;1.10;;;8.70;99.90;;;;;;4921630;29;20210;-81
2021/10/13 06:15:17;;;;;;;6.73;1.37;;;8.70;99.90;;;;;;4921327;29;20490;-84
2021/10/13 06:17:43;;;;;;;6.73;1.40;;;8.80;99.90;;;;;;4907025;29;20215;-83
2021/10/13 06:20:10;;;;;;;5.67;1.30;;;8.90;99.90;;;;;;4902289;29;20207;-83
2021/10/13 06:22:38;;;;;;;1.73;1.10;;;9.00;99.90;;;;;;4904285;29;21073;-83
2021/10/13 06:25:05;;;;;;;3.83;1.17;;;9.10;99.90;;;;;;4918106;29;20766;-84
2021/10/13 06:27:32;;;;;;;5.60;1.20;;;9.10;99.90;;;;;;4920931;29;20201;-84
2021/10/13 06:30:00;;;;;;;4.70;1.10;;;9.20;99.90;;;;;;4909717;29;20208;-82
2021/10/13 06:32:28;;;;;;;7.90;1.77;;;9.20;99.90;;;;;;4902689;29;20218;-85
2021/10/13 06:34:54;;;;;;;5.07;1.40;;;9.40;99.90;;;;;;4902201;29;20218;-83
2021/10/13 06:37:21;;;;;;;7.87;2.10;;;9.50;99.90;;;;;;4902283;29;20200;-84
2021/10/13 06:39:48;;;;;;;9.23;2.30;;;9.60;99.90;;;;;;4902810;29;20206;-82
2021/10/13 06:42:14;;;;;;;11.03;1.70;;;9.80;99.90;;;;;;4920283;29;20508;-87
2021/10/13 06:44:41;;;;;;;9.30;1.33;;;10.10;99.90;;;;;;4914326;29;20224;-83
2021/10/13 06:47:09;;;;;;;6.73;1.33;;;10.30;99.90;;;;;;4901661;29;20191;-84
2021/10/13 06:49:36;;;;;;;5.70;1.40;;;10.40;99.90;;;;;;4901803;29;20206;-86
2021/10/13 06:52:03;;;;;;;4.43;1.20;;;10.50;99.90;;;;;;4901768;29;20211;-84
2021/10/13 06:54:30;;;;;;;7.17;1.00;;;10.50;99.90;;;;;;4902407;29;20211;-88
2021/10/13 06:56:57;;;;;;;4.00;1.33;;;10.60;99.90;;;;;;4901472;29;20544;-84
2021/10/13 06:59:24;;;;;;;7.20;1.83;;;10.60;99.90;;;;;;4901605;29;20493;-83
2021/10/13 07:01:51;;;;;;;6.37;1.40;;;10.70;99.90;;;;;;4901521;29;20252;-84
2021/10/13 07:04:20;;;;;;;7.53;1.73;;;10.90;99.90;;;;;;4901377;29;20250;-85
2021/10/13 07:06:46;;;;;;;5.97;1.43;;;11.00;99.90;;;;;;4901805;29;20218;-87
2021/10/13 07:09:13;;;;;;;6.73;1.10;;;11.10;99.90;;;;;;4902169;29;20227;-88
2021/10/13 07:11:40;;;;;;;8.57;1.70;;;11.10;99.90;;;;;;4901347;29;20211;-86
2021/10/13 07:14:07;;;;;;;4.70;1.00;;;11.10;99.90;;;;;;4912262;29;20215;-86
2021/10/13 07:16:34;;;;;;;2.13;0.60;;;11.10;99.90;;;;;;4920342;29;20202;-85
2021/10/13 07:19:01;;;;;;;2.70;1.30;;;11.20;99.90;;;;;;4905885;29;20298;-85
2021/10/13 07:21:29;;;;;;;2.77;0.90;;;11.20;99.90;;;;;;4901583;29;20207;-85
2021/10/13 07:23:55;;;;;;;2.53;0.67;;;11.20;99.90;;;;;;4901566;29;20200;-84
2021/10/13 07:26:22;;;;;;;2.23;1.07;;;11.30;99.90;;;;;;4902085;29;20226;-85
2021/10/13 07:28:49;;;;;;;6.20;1.07;;;11.30;99.90;;;;;;4901285;29;20608;-86
2021/10/13 07:31:16;;;;;;;2.30;0.80;;;11.30;99.90;;;;;;4901385;29;20203;-89
2021/10/13 07:33:43;;;;;;;2.00;0.70;;;11.30;99.90;;;;;;4902851;29;20207;-86
2021/10/13 07:36:10;;;;;;;3.90;0.83;;;11.30;99.90;;;;;;4921582;29;20202;-84
2021/10/13 07:38:38;;;;;;;2.70;1.10;;;11.30;99.90;;;;;;4920297;29;20202;-83
2021/10/13 07:41:05;;;;;;;3.70;0.80;;;11.40;99.90;;;;;;4920067;29;20203;-84
2021/10/13 07:43:33;;;;;;;4.43;0.80;;;11.40;99.90;;;;;;4912382;29;20226;-82
2021/10/13 07:46:00;;;;;;;6.90;1.60;;;11.40;99.90;;;;;;4900561;29;20528;-84
2021/10/13 07:48:27;;;;;;;3.70;1.07;;;11.50;99.90;;;;;;4900925;29;20204;-85
2021/10/13 07:50:55;;;;;;;3.37;1.10;;;11.50;99.90;;;;;;4901307;29;20209;-84
2021/10/13 07:53:22;;;;;;;2.70;1.00;;;11.60;99.90;;;;;;4900510;29;20239;-84
2021/10/13 07:55:51;;;;;;;4.80;0.97;;;11.70;99.90;;;;;;4936418;23;20245;-87
2021/10/13 07:58:17;;;;;;;3.67;0.80;;;11.90;99.90;;;;;;4939835;29;20209;-83
2021/10/13 08:00:44;;;;;;;3.67;0.90;;;12.00;99.90;;;;;;4931994;29;20203;-86
2021/10/13 08:03:11;;;;;;;4.80;1.50;;;12.10;99.90;;;;;;4921230;29;20214;-84
2021/10/13 08:05:39;;;;;;;2.80;1.27;;;12.10;99.90;;;;;;4926669;29;20301;-85
2021/10/13 08:08:06;;;;;;;4.93;0.80;;;12.20;99.90;;;;;;4931178;29;20221;-82
2021/10/13 08:10:33;;;;;;;4.70;0.83;;;12.30;99.90;;;;;;4919928;29;20540;-85
2021/10/13 08:13:01;;;;;;;3.60;0.90;;;12.30;99.90;;;;;;4919430;29;20607;-84
2021/10/13 08:15:28;;;;;;;5.13;0.83;;;12.30;99.90;;;;;;4919252;29;20525;-84
2021/10/13 08:17:55;;;;;;;3.47;1.00;;;12.30;99.90;;;;;;4919410;29;20218;-86
2021/10/13 08:20:22;;;;;;;3.73;0.80;;;12.40;99.90;;;;;;4919609;29;20203;-82
2021/10/13 08:22:49;;;;;;;2.47;0.70;;;12.50;99.90;;;;;;4903760;29;20207;-85
2021/10/13 08:25:16;;;;;;;2.23;0.90;;;12.50;99.90;;;;;;4902413;29;20628;-93
2021/10/13 08:27:43;;;;;;;3.43;0.80;;;12.50;99.90;;;;;;4919070;29;20197;-85
2021/10/13 08:30:12;;;;;;;4.80;1.00;;;12.60;99.90;;;;;;4919674;29;20211;-88
2021/10/13 08:32:39;;;;;;;2.53;0.80;;;12.70;99.90;;;;;;4919623;29;20273;-84
2021/10/13 08:35:08;;;;;;;4.57;0.80;;;12.70;99.90;;;;;;4919507;29;20210;-87
2021/10/13 08:37:35;;;;;;;4.43;0.90;;;12.80;99.90;;;;;;4919574;29;20676;-87
2021/10/13 08:40:02;;;;;;;7.43;1.07;;;12.90;99.90;;;;;;4919615;29;20218;-85
2021/10/13 08:42:29;;;;;;;4.57;1.17;;;13.00;99.90;;;;;;4919072;29;20195;-86
2021/10/13 08:44:57;;;;;;;2.53;1.00;;;13.10;99.90;;;;;;4919148;29;20230;-86
2021/10/13 08:47:26;;;;;;;1.30;0.60;;;13.20;99.90;;;;;;4919385;29;20207;-86
2021/10/13 08:49:53;;;;;;;3.30;0.90;;;13.30;99.90;;;;;;4919087;29;20210;-91
2021/10/13 08:52:20;;;;;;;3.57;0.80;;;13.30;99.90;;;;;;4919281;29;20222;-85
2021/10/13 08:54:47;;;;;;;3.63;1.00;;;13.40;99.90;;;;;;4919003;29;20322;-87
2021/10/13 08:57:18;;;;;;;4.97;0.97;;;13.40;99.90;;;;;;4918783;29;20210;-85
2021/10/13 08:59:47;;;;;;;5.50;1.20;;;13.40;99.90;;;;;;4919536;29;20205;-84
2021/10/13 09:02:15;;;;;;;4.67;1.30;;;13.50;99.90;;;;;;4919421;29;20225;-87
2021/10/13 09:05:02;;;;;;;5.50;1.10;;;13.50;99.90;;;;;;4919667;29;20219;-87
2021/10/13 09:07:28;;;;;;;5.20;0.90;;;13.50;99.90;;;;;;4921399;29;20545;-83
2021/10/13 09:09:56;;;;;;;2.93;0.80;;;13.60;99.90;;;;;;4928200;29;20492;-84
2021/10/13 09:12:29;;;;;;;7.07;1.33;;;13.60;99.90;;;;;;4922601;29;20210;-85
2021/10/13 09:15:04;;;;;;;4.50;1.30;;;13.60;99.90;;;;;;4922745;29;20223;-88
2021/10/13 09:17:31;;;;;;;4.70;1.20;;;13.50;99.90;;;;;;4922534;29;20194;-84
2021/10/13 09:20:00;;;;;;;3.50;1.00;;;13.50;99.90;;;;;;4922381;29;20222;-84
2021/10/13 09:22:26;;;;;;;5.73;1.40;;;13.40;99.90;;;;;;4919104;29;20207;-86
2021/10/13 09:24:53;;;;;;;6.90;1.37;;;13.30;99.90;;;;;;4903509;29;20224;-83
2021/10/13 09:27:23;;;;;;;3.97;1.00;;;13.40;99.90;;;;;;4903698;29;20230;-90
2021/10/13 09:29:50;;;;;;;5.13;1.53;;;13.20;99.90;;;;;;4921792;29;20222;-86
2021/10/13 09:32:22;;;;;;;3.67;1.30;;;13.10;99.90;;;;;;4923105;29;20210;-85
2021/10/13 09:34:51;;;;;;;2.23;1.00;;;12.90;99.90;;;;;;4921982;29;20214;-84
2021/10/13 09:37:19;;;;;;;5.57;1.50;;;12.80;99.90;;;;;;4921788;29;20203;-83
2021/10/13 09:39:56;;;;;;;5.90;1.10;;;12.80;99.90;;;;;;4922068;29;20210;-90
2021/10/13 09:42:24;;;;;;;3.33;0.90;;;12.70;99.90;;;;;;4921622;29;20623;-86
2021/10/13 09:44:54;;;;;;;6.77;1.83;;;12.70;99.90;;;;;;4921453;29;20748;-83
2021/10/13 09:47:29;;;;;;;7.33;1.50;;;12.70;99.90;;;;;;4922044;29;20198;-85
2021/10/13 09:49:56;;;;;;;12.23;4.27;;;12.80;99.90;;;;;;4922069;29;20606;-90
2021/10/13 09:52:28;;;;;;;9.60;4.63;;;12.70;99.90;;;;;;4921518;29;20604;-86
2021/10/13 09:54:59;;;;;;;5.07;1.50;;;12.80;99.90;;;;;;4921819;29;20270;-87
2021/10/13 09:57:28;;;;;;;5.17;1.20;;;12.80;99.90;;;;;;4922038;29;20278;-84
2021/10/13 10:00:00;;;;;;;2.47;1.00;;;12.80;99.90;;;;;;4921815;29;20206;-84
2021/10/13 10:02:30;;;;;;;4.30;1.20;;;12.80;99.90;;;;;;4921701;29;20497;-83
2021/10/13 10:05:01;;;;;;;11.87;5.63;;;12.80;99.90;;;;;;4921442;29;20237;-84
2021/10/13 10:07:30;;;;;;;5.80;3.07;;;12.90;99.90;;;;;;4921220;29;20234;-84
2021/10/13 10:10:07;;;;;;;5.43;1.53;;;13.00;99.90;;;;;;4921916;29;20233;-85
2021/10/13 10:12:56;;;;;;;7.43;2.50;;;13.10;99.90;;;;;;4920728;29;20510;-85
2021/10/13 10:15:29;;;;;;;6.77;2.00;;;13.20;99.90;;;;;;4921407;29;20512;-92
2021/10/13 10:17:57;;;;;;;5.17;1.50;;;13.40;99.90;;;;;;4921233;29;20263;-82
2021/10/13 10:20:37;;;;;;;7.40;1.37;;;13.50;99.90;;;;;;4920912;29;20805;-86
2021/10/13 10:23:27;;;;;;;2.67;1.27;;;13.60;99.90;;;;;;4921407;29;20217;-86
2021/10/13 10:25:55;;;;;;;6.10;1.13;;;13.70;99.90;;;;;;4921146;29;20222;-90
2021/10/13 10:28:54;;;;;;;4.63;1.10;;;13.70;99.90;;;;;;4920951;29;20211;-90
2021/10/13 10:31:35;;;;;;;3.47;0.90;;;13.80;99.90;;;;;;4921675;29;20199;-88
2021/10/13 10:34:19;;;;;;;4.00;0.93;;;13.90;99.90;;;;;;4920606;29;20206;-85
2021/10/13 10:37:15;;;;;;;4.40;1.23;;;13.90;99.90;;;;;;4921401;29;20205;-84
2021/10/13 10:40:03;;;;;;;4.40;1.00;;;14.00;99.90;;;;;;4925198;29;20199;-85
2021/10/13 10:42:57;;;;;;;5.73;1.13;;;14.10;99.90;;;;;;4904198;29;20260;-86
2021/10/13 10:45:26;;;;;;;3.23;0.97;;;14.20;99.90;;;;;;4902150;29;20231;-84
2021/10/13 10:48:08;;;;;;;5.27;1.13;;;14.30;99.90;;;;;;4908087;29;20495;-86
2021/10/13 10:50:38;;;;;;;6.70;1.40;;;14.50;99.90;;;;;;4921029;29;20206;-87
2021/10/13 10:53:44;;;;;;;3.90;0.90;;;14.50;99.90;;;;;;4920788;29;20510;-83
2021/10/13 10:56:33;;;;;;;5.50;1.25;;;14.50;99.90;;;;;;4904820;29;20265;-86
2021/10/13 10:59:12;;;;;;;4.80;1.00;;;14.50;99.90;;;;;;4920990;29;20203;-82
2021/10/13 11:01:40;;;;;;;5.50;1.43;;;14.50;99.90;;;;;;4920846;29;20202;-86
2021/10/13 11:04:09;;;;;;;4.53;1.23;;;14.50;99.90;;;;;;4921249;29;20558;-87
2021/10/13 11:06:38;;;;;;;4.30;1.10;;;14.50;99.90;;;;;;4904126;29;20238;-87
2021/10/13 11:09:07;;;;;;;3.20;1.10;;;14.50;99.90;;;;;;4901646;29;20227;-86
2021/10/13 11:11:38;;;;;;;4.20;1.00;;;14.50;99.90;;;;;;4902222;29;20207;-87
2021/10/13 11:14:11;;;;;;;1.87;0.77;;;14.50;99.90;;;;;;4901854;29;20207;-86
2021/10/13 11:16:40;;;;;;;4.20;0.80;;;14.50;99.90;;;;;;4901218;29;20585;-83
2021/10/13 11:19:12;;;;;;;4.60;1.27;;;14.60;99.90;;;;;;4910597;29;20217;-85
2021/10/13 11:21:40;;;;;;;3.57;1.00;;;14.70;99.90;;;;;;4928157;23;20242;-86
2021/10/13 11:24:08;;;;;;;2.73;0.90;;;14.70;99.90;;;;;;4919669;29;20298;-87
2021/10/13 11:26:37;;;;;;;3.03;0.90;;;14.70;99.90;;;;;;4912170;29;20354;-87
2021/10/13 11:29:15;;;;;;;2.53;0.90;;;14.60;99.90;;;;;;4901655;29;20211;-85
2021/10/13 11:31:43;;;;;;;1.88;0.95;;;14.60;99.90;;;;;;4900939;29;20209;-83
2021/10/13 11:34:10;;;;;;;3.37;0.83;;;14.60;99.90;;;;;;4901581;29;20214;-83
2021/10/13 11:36:54;;;;;;;4.73;1.10;;;14.60;99.90;;;;;;4901638;29;20207;-88
2021/10/13 11:39:23;;;;;;;3.77;1.03;;;14.60;99.90;;;;;;4901359;29;20620;-85
2021/10/13 11:41:53;;;;;;;4.47;1.10;;;14.70;99.90;;;;;;4907116;29;20211;-86
2021/10/13 11:44:23;;;;;;;2.20;0.70;;;14.80;99.90;;;;;;4920546;29;20202;-85
2021/10/13 11:47:03;;;;;;;2.63;0.80;;;14.90;99.90;;;;;;4922757;29;20215;-85
2021/10/13 11:49:31;;;;;;;5.53;1.00;;;15.10;99.90;;;;;;4914209;29;20294;-85
2021/10/13 11:52:15;;;;;;;3.33;1.10;;;15.20;99.90;;;;;;4900657;29;20203;-87
2021/10/13 11:54:42;;;;;;;3.95;0.80;;;15.40;99.90;;;;;;4900719;29;20622;-91
2021/10/13 11:57:14;;;;;;;3.38;0.90;;;15.40;99.90;;;;;;4900936;29;20199;-88
2021/10/13 11:59:41;;;;;;;3.58;0.80;;;15.40;99.90;;;;;;4918271;29;20607;-88
2021/10/13 12:02:13;;;;;;;3.45;0.80;;;15.50;99.90;;;;;;4920000;29;20234;-89
2021/10/13 12:04:51;;;;;;;2.97;0.80;;;15.50;99.90;;;;;;4919482;29;20206;-84
2021/10/13 12:07:20;;;;;;;5.38;0.93;;;15.60;99.90;;;;;;4926843;23;20261;-86
2021/10/13 12:09:48;;;;;;;1.38;0.90;;;15.70;99.90;;;;;;4920239;29;20218;-85
2021/10/13 12:12:17;;;;;;;5.75;1.48;;;15.90;99.90;;;;;;4904049;29;20203;-86
2021/10/13 12:14:45;;;;;;;2.95;1.02;;;15.90;99.90;;;;;;4920749;29;20222;-87
2021/10/13 12:17:25;;;;;;;2.47;0.73;;;16.00;99.90;;;;;;4919915;29;20195;-87
2021/10/13 12:19:52;;;;;;;3.30;0.80;;;16.00;99.90;;;;;;4919975;29;20195;-85
2021/10/13 12:22:19;;;;;;;2.50;0.80;;;15.90;99.90;;;;;;4907905;29;20526;-85
2021/10/13 12:24:46;;;;;;;2.22;0.90;;;15.90;99.90;;;;;;4901146;29;20230;-86
2021/10/13 12:27:25;;;;;;;2.55;1.00;;;15.90;99.90;;;;;;4900578;29;20231;-88
2021/10/13 12:29:53;;;;;;;2.55;0.80;;;16.10;99.90;;;;;;4911757;29;20241;-86
2021/10/13 12:32:22;;;;;;;4.32;0.77;;;16.10;99.90;;;;;;4919690;29;20210;-86
2021/10/13 12:34:50;;;;;;;4.65;1.00;;;16.10;99.90;;;;;;4908104;29;20215;-88
2021/10/13 12:37:17;;;;;;;0.80;0.80;;;16.00;99.90;;;;;;4901156;29;20203;-87
2021/10/13 12:39:44;;;;;;;3.65;0.90;;;15.90;99.90;;;;;;4900868;29;20204;-86
2021/10/13 12:42:12;;;;;;;2.45;0.88;;;15.90;99.90;;;;;;4904209;29;20198;-88
2021/10/13 12:44:40;;;;;;;2.35;0.70;;;15.80;99.90;;;;;;4923512;29;20491;-87
2021/10/13 12:47:10;;;;;;;2.75;0.90;;;15.80;99.90;;;;;;4923515;29;20225;-88
2021/10/13 12:49:39;;;;;;;4.03;1.10;;;15.80;99.90;;;;;;4923257;29;20208;-85
2021/10/13 12:52:08;;;;;;;4.88;0.93;;;15.70;99.90;;;;;;4921427;29;20210;-88
2021/10/13 12:54:38;;;;;;;2.00;0.80;;;15.70;99.90;;;;;;4904567;29;20199;-87
2021/10/13 12:57:09;;;;;;;1.63;0.77;;;15.60;99.90;;;;;;4904740;29;20207;-86
2021/10/13 12:59:36;;;;;;;2.40;0.90;;;15.50;99.90;;;;;;4904362;29;20211;-86
2021/10/13 13:02:03;;;;;;;2.00;1.10;;;15.50;99.90;;;;;;4904255;29;20195;-87